Time;durP1;ratioP1;P1;durP2;ratioP2;P2;SDS_P1;SDS_P2;PMS_P1;PMS_P2;Temp;Humidity;BMP_temperature;BMP_pressure;BME280_temperature;BME280_humidity;BME280_pressure;Samples;Min_cycle;Max_cycle;Signal;HPM_P1;HPM_P2
2023/03/02 00:02:05;;;;;;;13.30;5.00;;;;;;;;;;5005043;28;20127;-67
2023/03/02 00:04:34;;;;;;;14.20;5.40;;;;;;;;;;4999262;28;20103;-68
2023/03/02 00:07:02;;;;;;;14.13;4.93;;;;;;;;;;5014151;28;20155;-67
2023/03/02 00:09:29;;;;;;;13.25;5.35;;;;;;;;;;5002681;28;20061;-67
2023/03/02 00:11:56;;;;;;;16.10;5.80;;;;;;;;;;4993642;28;20057;-67
2023/03/02 00:14:22;;;;;;;14.57;5.60;;;;;;;;;;5010237;28;20138;-67
2023/03/02 00:16:49;;;;;;;14.80;6.25;;;;;;;;;;5010373;28;20057;-68
2023/03/02 00:19:16;;;;;;;16.00;6.03;;;;;;;;;;4999802;28;20185;-68
2023/03/02 00:21:46;;;;;;;14.57;5.95;;;;;;;;;;5006994;28;20096;-68
2023/03/02 00:24:15;;;;;;;15.90;6.22;;;;;;;;;;4996720;28;20073;-68
2023/03/02 00:26:49;;;;;;;18.45;6.32;;;;;;;;;;4894995;28;20050;-68
2023/03/02 00:32:39;;;;;;;;;;;;;;;;;;;;;
2023/03/02 00:35:09;;;;;;;18.00;6.28;;;;;;;;;;4905056;28;20066;-68
2023/03/02 00:37:59;;;;;;;17.95;7.50;;;;;;;;;;4825911;29;20182;-67
2023/03/02 00:40:26;;;;;;;19.02;7.22;;;;;;;;;;4900598;28;20063;-67
2023/03/02 00:42:57;;;;;;;18.80;8.02;;;;;;;;;;4922776;28;20054;-67
2023/03/02 00:45:37;;;;;;;20.02;7.00;;;;;;;;;;4876280;28;20150;-68
2023/03/02 00:50:50;;;;;;;21.27;7.25;;;;;;;;;;4949093;28;20050;-68
2023/03/02 00:53:40;;;;;;;17.63;7.30;;;;;;;;;;4964239;28;20053;-68
2023/03/02 00:56:08;;;;;;;21.10;7.80;;;;;;;;;;4860965;29;20147;-67
2023/03/02 00:58:34;;;;;;;23.48;8.95;;;;;;;;;;4899563;28;20432;-68
2023/03/02 01:01:05;;;;;;;19.42;8.07;;;;;;;;;;4895596;28;20087;-67
2023/03/02 01:03:50;;;;;;;26.38;9.57;;;;;;;;;;4912439;28;20190;-69
2023/03/02 01:11:34;;;;;;;24.70;8.87;;;;;;;;;;4859629;29;20056;-68
2023/03/02 01:19:10;;;;;;;26.27;9.80;;;;;;;;;;4852721;29;20159;-68
2023/03/02 01:21:37;;;;;;;24.30;9.18;;;;;;;;;;4926280;28;20143;-67
2023/03/02 01:24:04;;;;;;;24.60;10.20;;;;;;;;;;4994123;28;20058;-68
2023/03/02 01:26:31;;;;;;;22.40;9.18;;;;;;;;;;4985211;28;20140;-69
2023/03/02 01:28:58;;;;;;;27.17;9.47;;;;;;;;;;4993602;28;20081;-68
2023/03/02 01:31:26;;;;;;;22.45;9.02;;;;;;;;;;4988962;28;20374;-68
2023/03/02 01:33:52;;;;;;;23.55;9.27;;;;;;;;;;4988648;28;20366;-68
2023/03/02 01:36:19;;;;;;;23.75;9.23;;;;;;;;;;4995046;28;20148;-68
2023/03/02 01:38:46;;;;;;;28.10;10.18;;;;;;;;;;4990885;28;20060;-69
2023/03/02 01:41:12;;;;;;;24.25;9.60;;;;;;;;;;4993227;28;20112;-68
2023/03/02 01:43:40;;;;;;;24.25;9.57;;;;;;;;;;4982649;28;20566;-68
2023/03/02 01:46:09;;;;;;;30.67;10.02;;;;;;;;;;5001258;28;20076;-68
2023/03/02 01:48:39;;;;;;;29.08;10.32;;;;;;;;;;5012077;28;20057;-68
2023/03/02 01:51:08;;;;;;;27.83;10.40;;;;;;;;;;5003461;28;20115;-68
2023/03/02 01:53:35;;;;;;;25.83;10.90;;;;;;;;;;4997594;28;20136;-68
2023/03/02 01:56:02;;;;;;;31.55;11.13;;;;;;;;;;5013027;28;20061;-68
2023/03/02 01:58:31;;;;;;;28.15;10.23;;;;;;;;;;5000627;28;20160;-68
2023/03/02 02:00:59;;;;;;;28.33;9.98;;;;;;;;;;5012113;28;20333;-68
2023/03/02 02:03:27;;;;;;;29.10;10.00;;;;;;;;;;5002686;28;20057;-69
2023/03/02 02:05:58;;;;;;;25.48;9.52;;;;;;;;;;4992116;28;20049;-68
2023/03/02 02:08:26;;;;;;;32.13;10.43;;;;;;;;;;4981293;28;20073;-68
2023/03/02 02:10:53;;;;;;;27.13;10.40;;;;;;;;;;4994833;28;20068;-68
2023/03/02 02:13:20;;;;;;;24.83;9.77;;;;;;;;;;4989569;28;20046;-68
2023/03/02 02:15:46;;;;;;;26.02;10.20;;;;;;;;;;4962823;28;20141;-68
2023/03/02 02:18:14;;;;;;;26.95;10.45;;;;;;;;;;5011989;28;20145;-68
2023/03/02 02:20:43;;;;;;;28.52;10.15;;;;;;;;;;5017592;28;20319;-68
2023/03/02 02:23:24;;;;;;;29.70;10.93;;;;;;;;;;5006029;28;20053;-69
2023/03/02 02:26:17;;;;;;;26.60;10.23;;;;;;;;;;5011141;28;20068;-68
2023/03/02 02:28:47;;;;;;;29.08;9.32;;;;;;;;;;5005005;28;20057;-68
2023/03/02 02:31:15;;;;;;;29.50;10.98;;;;;;;;;;5015263;28;20168;-68
2023/03/02 02:33:43;;;;;;;30.08;10.02;;;;;;;;;;5005325;28;20073;-69
2023/03/02 02:36:14;;;;;;;24.47;9.37;;;;;;;;;;4996072;28;20369;-68
2023/03/02 02:38:41;;;;;;;27.55;9.90;;;;;;;;;;4995664;28;20057;-67
2023/03/02 02:41:11;;;;;;;33.08;10.77;;;;;;;;;;4986180;28;20052;-67
2023/03/02 02:43:37;;;;;;;25.75;9.57;;;;;;;;;;4988011;28;20053;-68
2023/03/02 02:46:05;;;;;;;26.75;10.00;;;;;;;;;;5004930;28;20053;-68
2023/03/02 02:48:32;;;;;;;25.20;9.63;;;;;;;;;;5014281;28;20141;-68
2023/03/02 02:56:04;;;;;;;30.38;10.20;;;;;;;;;;4948516;28;19948;-68
2023/03/02 02:58:32;;;;;;;28.60;9.40;;;;;;;;;;4957045;28;20069;-68
2023/03/02 03:00:59;;;;;;;24.63;9.73;;;;;;;;;;4956679;28;20065;-68
2023/03/02 03:03:31;;;;;;;29.30;10.43;;;;;;;;;;4899953;28;20054;-68
2023/03/02 03:05:59;;;;;;;28.00;10.70;;;;;;;;;;4936614;28;20193;-68
2023/03/02 03:08:55;;;;;;;29.20;9.95;;;;;;;;;;4930002;28;20056;-68
2023/03/02 03:11:23;;;;;;;25.38;9.18;;;;;;;;;;4896773;29;20495;-68
2023/03/02 03:13:52;;;;;;;25.52;9.75;;;;;;;;;;4940981;28;20114;-67
2023/03/02 03:16:19;;;;;;;31.15;9.70;;;;;;;;;;4950542;28;20058;-69
2023/03/02 03:18:47;;;;;;;31.42;10.13;;;;;;;;;;4954877;28;20189;-67
2023/03/02 03:21:14;;;;;;;;;;;;;;;;;;4959608;28;20065;-67
2023/03/02 03:23:40;;;;;;;23.52;8.48;;;;;;;;;;4966193;28;19930;-68
2023/03/02 03:26:07;;;;;;;26.95;9.85;;;;;;;;;;4968263;28;20203;-68
2023/03/02 03:28:36;;;;;;;27.60;9.98;;;;;;;;;;4969056;28;20083;-68
2023/03/02 03:31:02;;;;;;;28.02;8.93;;;;;;;;;;4945018;28;20140;-68
2023/03/02 03:33:29;;;;;;;29.08;10.88;;;;;;;;;;4946870;28;20069;-67
2023/03/02 03:35:57;;;;;;;27.30;9.80;;;;;;;;;;4948292;28;20068;-68
2023/03/02 03:38:23;;;;;;;23.42;9.00;;;;;;;;;;4954074;28;20070;-68
2023/03/02 03:40:50;;;;;;;29.25;9.82;;;;;;;;;;4954313;28;20069;-68
2023/03/02 03:43:16;;;;;;;27.73;9.88;;;;;;;;;;4943842;28;20054;-68
2023/03/02 03:45:43;;;;;;;27.88;9.93;;;;;;;;;;4966628;28;20392;-68
2023/03/02 03:48:09;;;;;;;32.88;10.30;;;;;;;;;;4963309;28;20058;-68
2023/03/02 03:50:36;;;;;;;27.00;9.63;;;;;;;;;;4958786;28;20141;-68
2023/03/02 03:53:04;;;;;;;27.05;9.85;;;;;;;;;;4923930;28;21706;-68
2023/03/02 03:55:30;;;;;;;22.93;8.90;;;;;;;;;;4955091;28;20082;-67
2023/03/02 03:57:57;;;;;;;24.65;8.32;;;;;;;;;;4949760;28;20354;-68
2023/03/02 04:00:23;;;;;;;27.13;9.40;;;;;;;;;;4938164;28;20058;-67
2023/03/02 04:02:50;;;;;;;26.40;9.57;;;;;;;;;;4925546;28;20169;-68
2023/03/02 04:05:17;;;;;;;28.23;9.80;;;;;;;;;;4931066;28;20074;-67
2023/03/02 04:07:43;;;;;;;25.35;9.13;;;;;;;;;;4955588;28;20142;-67
2023/03/02 04:10:12;;;;;;;21.42;8.57;;;;;;;;;;4922476;28;20516;-67
2023/03/02 04:12:40;;;;;;;29.85;10.90;;;;;;;;;;4953537;28;20058;-68
2023/03/02 04:15:07;;;;;;;25.95;8.98;;;;;;;;;;4900578;28;20090;-68
2023/03/02 04:17:34;;;;;;;22.00;8.93;;;;;;;;;;4949682;28;20049;-67
2023/03/02 04:20:00;;;;;;;24.67;9.40;;;;;;;;;;4939032;28;20083;-68
2023/03/02 04:22:27;;;;;;;22.88;8.70;;;;;;;;;;4944361;28;20216;-67
2023/03/02 04:24:53;;;;;;;29.65;9.20;;;;;;;;;;4936673;28;20051;-68
2023/03/02 04:27:21;;;;;;;27.13;9.50;;;;;;;;;;4941966;28;20090;-67
2023/03/02 04:29:47;;;;;;;27.73;9.40;;;;;;;;;;4945118;28;20101;-67
2023/03/02 04:32:14;;;;;;;25.20;9.55;;;;;;;;;;4929801;28;20321;-68
2023/03/02 04:34:41;;;;;;;25.55;8.65;;;;;;;;;;4942098;28;20126;-67
2023/03/02 04:37:07;;;;;;;28.45;9.60;;;;;;;;;;4947062;28;20055;-68
2023/03/02 04:39:35;;;;;;;29.05;9.55;;;;;;;;;;4948577;28;20063;-67
2023/03/02 04:42:02;;;;;;;26.23;9.85;;;;;;;;;;4932890;28;20066;-67
2023/03/02 04:44:30;;;;;;;25.08;9.10;;;;;;;;;;4905632;28;20372;-68
2023/03/02 04:46:56;;;;;;;25.08;9.10;;;;;;;;;;4936032;28;20118;-67
2023/03/02 04:49:23;;;;;;;25.45;9.45;;;;;;;;;;4935784;28;20105;-67
2023/03/02 04:51:49;;;;;;;29.30;9.30;;;;;;;;;;4953284;28;20089;-68
2023/03/02 04:54:17;;;;;;;23.88;9.00;;;;;;;;;;4941771;28;20077;-67
2023/03/02 04:56:47;;;;;;;25.40;8.57;;;;;;;;;;4931250;28;20055;-66
2023/03/02 04:59:13;;;;;;;25.52;9.15;;;;;;;;;;4952541;28;20369;-67
2023/03/02 05:01:43;;;;;;;25.83;9.05;;;;;;;;;;4943930;28;20102;-67
2023/03/02 05:04:10;;;;;;;23.17;8.65;;;;;;;;;;4927167;28;20055;-67
2023/03/02 05:06:36;;;;;;;23.05;8.77;;;;;;;;;;4928873;28;20185;-67
2023/03/02 05:09:03;;;;;;;26.70;9.35;;;;;;;;;;4956625;28;20201;-67
2023/03/02 05:11:30;;;;;;;23.58;8.30;;;;;;;;;;4954285;28;20054;-67
2023/03/02 05:13:58;;;;;;;31.25;10.25;;;;;;;;;;4923093;28;20046;-67
2023/03/02 05:16:27;;;;;;;23.17;8.70;;;;;;;;;;4974113;28;20166;-68
2023/03/02 05:18:55;;;;;;;25.75;9.48;;;;;;;;;;4952703;28;20114;-68
2023/03/02 05:21:22;;;;;;;27.98;9.20;;;;;;;;;;4938104;28;20058;-69
2023/03/02 05:23:48;;;;;;;23.70;8.68;;;;;;;;;;4924045;28;20140;-69
2023/03/02 05:26:15;;;;;;;23.70;8.88;;;;;;;;;;4956200;28;21940;-69
2023/03/02 05:28:42;;;;;;;29.27;9.20;;;;;;;;;;4954557;28;20568;-69
2023/03/02 05:31:08;;;;;;;23.70;8.77;;;;;;;;;;4953802;28;20058;-68
2023/03/02 05:33:35;;;;;;;25.38;9.32;;;;;;;;;;4936917;28;20284;-68
2023/03/02 05:36:03;;;;;;;25.42;9.32;;;;;;;;;;4936777;28;20091;-68
2023/03/02 05:38:30;;;;;;;27.67;9.48;;;;;;;;;;4952026;28;20199;-67
2023/03/02 05:40:57;;;;;;;27.45;10.15;;;;;;;;;;4956053;28;20141;-69
2023/03/02 05:43:23;;;;;;;27.13;9.02;;;;;;;;;;4938510;28;20054;-68
2023/03/02 05:45:50;;;;;;;24.67;9.18;;;;;;;;;;4936928;28;20046;-69
2023/03/02 05:48:16;;;;;;;26.50;9.63;;;;;;;;;;4947990;28;21971;-68
2023/03/02 05:50:43;;;;;;;26.63;9.07;;;;;;;;;;4957561;28;20058;-68
2023/03/02 05:53:11;;;;;;;23.17;8.35;;;;;;;;;;4956368;28;20062;-68
2023/03/02 05:55:38;;;;;;;25.92;8.60;;;;;;;;;;4928966;28;20154;-69
2023/03/02 05:58:04;;;;;;;24.98;9.43;;;;;;;;;;4941559;28;20409;-69
2023/03/02 06:00:31;;;;;;;25.60;9.35;;;;;;;;;;4956235;28;20058;-68
2023/03/02 06:02:57;;;;;;;36.20;9.52;;;;;;;;;;4934756;28;20082;-68
2023/03/02 06:05:24;;;;;;;25.35;9.07;;;;;;;;;;4942379;28;20058;-68
2023/03/02 06:07:53;;;;;;;24.45;9.10;;;;;;;;;;4947381;28;20077;-68
2023/03/02 06:10:24;;;;;;;27.35;8.73;;;;;;;;;;4945506;28;20880;-68
2023/03/02 06:12:51;;;;;;;23.75;9.20;;;;;;;;;;4940466;28;20078;-68
2023/03/02 06:15:18;;;;;;;27.42;9.68;;;;;;;;;;4930161;28;20256;-68
2023/03/02 06:17:45;;;;;;;32.42;9.60;;;;;;;;;;4947958;28;20132;-68
2023/03/02 06:20:12;;;;;;;30.48;10.00;;;;;;;;;;4935618;28;20401;-68
2023/03/02 06:22:40;;;;;;;29.55;8.85;;;;;;;;;;4976143;28;20066;-68
2023/03/02 06:25:07;;;;;;;24.73;9.20;;;;;;;;;;4953473;28;20054;-69
2023/03/02 06:27:36;;;;;;;26.30;9.05;;;;;;;;;;4948108;28;20062;-68
2023/03/02 06:30:02;;;;;;;;;;;;;;;;;;4923228;28;20058;-69
2023/03/02 06:32:34;;;;;;;23.55;7.90;;;;;;;;;;4937359;28;19932;-66
2023/03/02 06:35:00;;;;;;;27.35;8.98;;;;;;;;;;4924971;28;20054;-67
2023/03/02 06:37:27;;;;;;;24.90;9.10;;;;;;;;;;4971993;28;20062;-68
2023/03/02 06:39:56;;;;;;;25.75;8.52;;;;;;;;;;4934118;28;20129;-66
2023/03/02 06:42:25;;;;;;;29.77;9.30;;;;;;;;;;4941478;28;20062;-66
2023/03/02 06:44:54;;;;;;;23.33;8.90;;;;;;;;;;4939837;28;20054;-67
2023/03/02 06:47:21;;;;;;;29.70;8.63;;;;;;;;;;4944711;28;20075;-66
2023/03/02 06:49:48;;;;;;;28.73;9.48;;;;;;;;;;4938642;28;20051;-67
2023/03/02 06:52:15;;;;;;;26.58;8.82;;;;;;;;;;4920680;28;20203;-67
2023/03/02 06:54:41;;;;;;;27.88;8.40;;;;;;;;;;4964384;28;20397;-66
2023/03/02 06:57:08;;;;;;;28.10;8.95;;;;;;;;;;4944193;28;20053;-66
2023/03/02 06:59:35;;;;;;;23.38;8.40;;;;;;;;;;4945308;28;20055;-66
2023/03/02 07:02:03;;;;;;;27.55;9.10;;;;;;;;;;4915097;28;20121;-68
2023/03/02 07:04:30;;;;;;;24.40;8.23;;;;;;;;;;4913903;28;20102;-66
2023/03/02 07:06:56;;;;;;;27.73;9.35;;;;;;;;;;4935476;28;20086;-67
2023/03/02 07:09:23;;;;;;;21.80;8.02;;;;;;;;;;4957269;28;20058;-66
2023/03/02 07:11:50;;;;;;;26.25;8.55;;;;;;;;;;4960248;28;20722;-68
2023/03/02 07:14:19;;;;;;;32.33;10.32;;;;;;;;;;4913509;28;21724;-68
2023/03/02 07:16:45;;;;;;;;;;;;;;;;;;4929924;28;20067;-66
2023/03/02 07:19:14;;;;;;;19.00;7.03;;;;;;;;;;4951878;28;20259;-67
2023/03/02 07:21:41;;;;;;;27.45;8.55;;;;;;;;;;4946826;28;20281;-67
2023/03/02 07:24:10;;;;;;;25.77;8.32;;;;;;;;;;4949450;28;20626;-66
2023/03/02 07:26:36;;;;;;;24.25;7.93;;;;;;;;;;4956616;28;20165;-68
2023/03/02 07:29:03;;;;;;;23.55;8.57;;;;;;;;;;4947696;28;20054;-68
2023/03/02 07:31:31;;;;;;;27.85;8.40;;;;;;;;;;4948834;28;20109;-67
2023/03/02 07:33:58;;;;;;;;;;;;;;;;;;4896490;28;20065;-68
2023/03/02 07:36:26;;;;;;;21.17;7.07;;;;;;;;;;4954949;28;20043;-66
2023/03/02 07:38:53;;;;;;;21.88;7.80;;;;;;;;;;4948418;28;20050;-66
2023/03/02 07:41:22;;;;;;;25.17;8.90;;;;;;;;;;4934450;28;20109;-67
2023/03/02 07:46:46;;;;;;;25.25;7.90;;;;;;;;;;4882339;28;20074;-66
2023/03/02 07:49:25;;;;;;;25.05;8.55;;;;;;;;;;4911399;28;20104;-67
2023/03/02 07:52:01;;;;;;;24.65;8.68;;;;;;;;;;4947514;28;20137;-67
2023/03/02 08:02:32;;;;;;;26.85;8.38;;;;;;;;;;4818619;29;20053;-66
2023/03/02 08:39:44;;;;;;;23.35;7.05;;;;;;;;;;5013088;28;20518;-67
2023/03/02 08:42:11;;;;;;;25.35;7.55;;;;;;;;;;4990164;28;20065;-67
2023/03/02 08:44:37;;;;;;;26.35;7.70;;;;;;;;;;4991230;28;20061;-67
2023/03/02 08:47:04;;;;;;;21.17;7.28;;;;;;;;;;4972119;28;20057;-68
2023/03/02 08:49:33;;;;;;;23.70;7.60;;;;;;;;;;4973438;28;20158;-68
2023/03/02 08:52:02;;;;;;;19.02;7.07;;;;;;;;;;4958595;28;20046;-68
2023/03/02 08:54:29;;;;;;;23.27;7.72;;;;;;;;;;4951109;28;20092;-68
2023/03/02 08:56:57;;;;;;;23.05;7.35;;;;;;;;;;4991781;28;20049;-68
2023/03/02 08:59:27;;;;;;;23.20;7.00;;;;;;;;;;4992805;28;20053;-69
2023/03/02 09:01:58;;;;;;;25.35;6.88;;;;;;;;;;4989415;28;20051;-69
2023/03/02 09:04:25;;;;;;;21.73;7.93;;;;;;;;;;4977052;28;20061;-69
2023/03/02 09:06:51;;;;;;;19.92;6.47;;;;;;;;;;4961796;28;20134;-68
2023/03/02 09:09:18;;;;;;;21.00;6.43;;;;;;;;;;4988960;28;20073;-68
2023/03/02 09:11:45;;;;;;;23.33;7.82;;;;;;;;;;5004894;28;20061;-69
2023/03/02 09:14:15;;;;;;;28.67;8.18;;;;;;;;;;4965379;28;20053;-68
2023/03/02 09:16:45;;;;;;;21.90;7.32;;;;;;;;;;4971864;28;20053;-66
2023/03/02 09:19:12;;;;;;;19.98;6.90;;;;;;;;;;4952195;28;20088;-66
2023/03/02 09:21:39;;;;;;;24.27;6.78;;;;;;;;;;4973557;28;20061;-67
2023/03/02 09:24:05;;;;;;;21.20;7.72;;;;;;;;;;4985835;28;20062;-68
2023/03/02 09:26:35;;;;;;;22.73;7.57;;;;;;;;;;4961950;28;20054;-67
2023/03/02 09:29:12;;;;;;;19.42;5.95;;;;;;;;;;4966190;28;20063;-68
2023/03/02 09:31:42;;;;;;;20.70;6.68;;;;;;;;;;4983171;28;20257;-68
2023/03/02 09:34:08;;;;;;;21.58;6.78;;;;;;;;;;4971108;28;20060;-67
2023/03/02 09:36:35;;;;;;;20.98;6.63;;;;;;;;;;4990445;28;20061;-67
2023/03/02 09:39:08;;;;;;;20.63;6.93;;;;;;;;;;4979487;28;20057;-67
2023/03/02 09:41:42;;;;;;;19.85;6.55;;;;;;;;;;5003060;28;20309;-67
2023/03/02 09:44:15;;;;;;;21.27;6.68;;;;;;;;;;4970263;28;20072;-68
2023/03/02 09:46:55;;;;;;;20.00;6.32;;;;;;;;;;4976079;28;20123;-67
2023/03/02 09:49:27;;;;;;;18.95;6.68;;;;;;;;;;4952169;28;20056;-66
2023/03/02 09:52:02;;;;;;;20.05;6.75;;;;;;;;;;4959102;28;20050;-66
2023/03/02 09:54:31;;;;;;;18.83;6.68;;;;;;;;;;4943107;28;20148;-66
2023/03/02 09:56:57;;;;;;;;;;;;;;;;;;4970613;28;20054;-67
2023/03/02 09:59:27;;;;;;;22.13;6.00;;;;;;;;;;4974247;28;20000;-67
2023/03/02 10:02:01;;;;;;;21.77;6.88;;;;;;;;;;4974693;28;20061;-68
2023/03/02 10:04:38;;;;;;;18.58;6.30;;;;;;;;;;4971308;28;20072;-69
2023/03/02 10:07:12;;;;;;;20.70;6.85;;;;;;;;;;4942693;28;20053;-66
2023/03/02 10:09:39;;;;;;;17.30;5.70;;;;;;;;;;4986480;28;20208;-66
2023/03/02 10:12:18;;;;;;;18.92;6.60;;;;;;;;;;4961520;28;20058;-67
2023/03/02 10:14:49;;;;;;;18.35;5.95;;;;;;;;;;4933975;28;20055;-67
2023/03/02 10:17:32;;;;;;;18.95;6.05;;;;;;;;;;4954447;28;20062;-67
2023/03/02 10:20:03;;;;;;;20.98;6.93;;;;;;;;;;4944876;28;20206;-67
2023/03/02 10:22:33;;;;;;;24.77;6.35;;;;;;;;;;4964766;28;20069;-68
2023/03/02 10:25:10;;;;;;;23.27;6.63;;;;;;;;;;4935885;28;20054;-67
2023/03/02 10:27:38;;;;;;;22.83;5.53;;;;;;;;;;4951388;28;20153;-66
2023/03/02 10:30:08;;;;;;;15.13;5.10;;;;;;;;;;4945003;28;20097;-67
2023/03/02 10:32:45;;;;;;;19.38;6.40;;;;;;;;;;4959512;28;20062;-66
2023/03/02 10:35:14;;;;;;;22.52;6.15;;;;;;;;;;4967091;28;20069;-67
2023/03/02 10:37:41;;;;;;;18.58;6.63;;;;;;;;;;4981553;28;20096;-67
2023/03/02 10:40:11;;;;;;;22.48;6.82;;;;;;;;;;4991915;28;20057;-66
2023/03/02 10:42:40;;;;;;;20.45;6.60;;;;;;;;;;4984769;28;20053;-67
2023/03/02 10:45:09;;;;;;;21.23;6.90;;;;;;;;;;4974986;28;20462;-67
2023/03/02 10:47:35;;;;;;;;;;;;;;;;;;4978905;28;20050;-67
2023/03/02 10:50:21;;;;;;;18.17;6.00;;;;;;;;;;4968209;28;20860;-68
2023/03/02 10:52:49;;;;;;;18.48;5.95;;;;;;;;;;4974342;28;20046;-67
2023/03/02 10:55:15;;;;;;;19.00;5.85;;;;;;;;;;4948578;28;20065;-69
2023/03/02 10:57:43;;;;;;;20.85;6.43;;;;;;;;;;4949829;28;20137;-66
2023/03/02 11:00:15;;;;;;;14.43;5.65;;;;;;;;;;4962332;28;20056;-67
2023/03/02 11:02:48;;;;;;;19.50;6.00;;;;;;;;;;4983067;28;20060;-67
2023/03/02 11:05:26;;;;;;;21.45;6.50;;;;;;;;;;4939483;28;20166;-67
2023/03/02 11:07:53;;;;;;;20.35;6.00;;;;;;;;;;4952726;28;20621;-66
2023/03/02 11:10:20;;;;;;;21.13;6.07;;;;;;;;;;4935803;28;20237;-67
2023/03/02 11:12:48;;;;;;;16.88;5.82;;;;;;;;;;4968201;28;20183;-66
2023/03/02 11:15:18;;;;;;;18.13;6.43;;;;;;;;;;4927972;28;20046;-67
2023/03/02 11:17:46;;;;;;;18.55;5.95;;;;;;;;;;4970331;28;20080;-67
2023/03/02 11:20:17;;;;;;;16.55;5.50;;;;;;;;;;4979009;28;20141;-67
2023/03/02 11:22:49;;;;;;;18.97;5.93;;;;;;;;;;4997383;28;20068;-66
2023/03/02 11:25:21;;;;;;;14.80;5.68;;;;;;;;;;4948913;28;20046;-67
2023/03/02 11:27:52;;;;;;;17.85;5.72;;;;;;;;;;4990976;28;20134;-66
2023/03/02 11:30:21;;;;;;;16.35;5.20;;;;;;;;;;4977684;28;20066;-67
2023/03/02 11:32:52;;;;;;;14.77;5.35;;;;;;;;;;4978828;28;20104;-66
2023/03/02 11:35:24;;;;;;;17.60;5.40;;;;;;;;;;4961552;28;20125;-67
2023/03/02 11:38:04;;;;;;;15.45;5.00;;;;;;;;;;4992358;28;20089;-67
2023/03/02 11:40:32;;;;;;;12.75;5.03;;;;;;;;;;4961201;28;20076;-68
2023/03/02 11:43:00;;;;;;;14.77;4.88;;;;;;;;;;4972142;28;20142;-66
2023/03/02 11:45:42;;;;;;;16.85;5.50;;;;;;;;;;4947641;28;20126;-67
2023/03/02 11:48:13;;;;;;;14.02;5.07;;;;;;;;;;4964068;28;20054;-66
2023/03/02 11:50:44;;;;;;;15.80;5.60;;;;;;;;;;4959612;28;20054;-68
2023/03/02 11:53:18;;;;;;;17.73;6.18;;;;;;;;;;4976522;28;20054;-67
2023/03/02 11:55:47;;;;;;;16.00;5.88;;;;;;;;;;4921450;28;20058;-67
2023/03/02 11:58:19;;;;;;;15.75;5.53;;;;;;;;;;4942761;28;20053;-68
2023/03/02 12:00:58;;;;;;;;;;;;;;;;;;;;;
2023/03/02 12:03:26;;;;;;;;;;;;;;;;;;4979927;28;20086;-67
2023/03/02 12:06:02;;;;;;;13.00;4.13;;;;;;;;;;4954181;28;20024;-70
2023/03/02 12:08:33;;;;;;;16.75;5.13;;;;;;;;;;4986689;28;20466;-67
2023/03/02 12:11:05;;;;;;;19.77;5.70;;;;;;;;;;4975430;28;20170;-68
2023/03/02 12:13:33;;;;;;;17.83;5.50;;;;;;;;;;4972348;28;20085;-67
2023/03/02 12:16:01;;;;;;;18.17;5.43;;;;;;;;;;4948101;28;20135;-67
2023/03/02 12:18:29;;;;;;;14.65;5.68;;;;;;;;;;4953529;28;20050;-67
2023/03/02 12:21:05;;;;;;;13.80;5.07;;;;;;;;;;4953236;28;20105;-68
2023/03/02 12:23:34;;;;;;;13.13;5.40;;;;;;;;;;4957817;28;20408;-70
2023/03/02 12:26:05;;;;;;;15.20;5.38;;;;;;;;;;4960815;28;20049;-67
2023/03/02 12:28:37;;;;;;;15.13;5.60;;;;;;;;;;4970602;28;20101;-68
2023/03/02 12:31:05;;;;;;;16.58;5.55;;;;;;;;;;4958406;28;20049;-67
2023/03/02 12:33:38;;;;;;;16.38;5.28;;;;;;;;;;4978039;28;20054;-68
2023/03/02 12:36:10;;;;;;;13.77;5.57;;;;;;;;;;4942434;28;20058;-68
2023/03/02 12:38:41;;;;;;;14.60;5.32;;;;;;;;;;4995087;28;20061;-68
2023/03/02 12:41:37;;;;;;;17.30;5.38;;;;;;;;;;4930712;28;20070;-68
2023/03/02 12:44:19;;;;;;;13.57;5.13;;;;;;;;;;4921160;28;20460;-68
2023/03/02 12:46:49;;;;;;;13.30;4.90;;;;;;;;;;4894669;28;20058;-68
2023/03/02 12:49:22;;;;;;;12.23;5.20;;;;;;;;;;4974618;28;20211;-68
2023/03/02 12:51:56;;;;;;;15.05;5.10;;;;;;;;;;4976329;28;20277;-68
2023/03/02 12:54:28;;;;;;;13.68;5.35;;;;;;;;;;4969633;28;20179;-68
2023/03/02 12:57:02;;;;;;;14.73;5.30;;;;;;;;;;4914724;28;20073;-68
2023/03/02 12:59:29;;;;;;;14.80;4.85;;;;;;;;;;4957294;28;20072;-68
2023/03/02 13:02:13;;;;;;;15.10;5.88;;;;;;;;;;4975425;28;20479;-69
2023/03/02 13:04:39;;;;;;;12.82;5.00;;;;;;;;;;4973714;28;20054;-68
2023/03/02 13:07:17;;;;;;;14.15;6.03;;;;;;;;;;4936244;28;20065;-68
2023/03/02 13:09:48;;;;;;;13.90;4.93;;;;;;;;;;4962486;28;20046;-69
2023/03/02 13:12:16;;;;;;;15.73;5.75;;;;;;;;;;4971324;28;20081;-70
2023/03/02 13:14:51;;;;;;;12.30;5.32;;;;;;;;;;4956594;28;20068;-68
2023/03/02 13:17:22;;;;;;;17.17;5.28;;;;;;;;;;4893983;28;20156;-69
2023/03/02 13:19:56;;;;;;;16.42;5.38;;;;;;;;;;4905398;28;20183;-68
2023/03/02 13:22:23;;;;;;;12.98;5.15;;;;;;;;;;4896494;28;21298;-69
2023/03/02 13:24:55;;;;;;;16.63;5.43;;;;;;;;;;4881335;29;20051;-68
2023/03/02 13:27:22;;;;;;;13.07;5.38;;;;;;;;;;4872450;29;20066;-68
2023/03/02 13:30:10;;;;;;;13.55;5.20;;;;;;;;;;4871932;28;20048;-68
2023/03/02 13:32:39;;;;;;;15.02;5.40;;;;;;;;;;4920730;28;20054;-69
2023/03/02 13:35:16;;;;;;;13.05;5.40;;;;;;;;;;4941480;28;20066;-69
2023/03/02 13:37:43;;;;;;;15.95;6.35;;;;;;;;;;4892523;28;20079;-69
2023/03/02 13:40:38;;;;;;;14.32;5.10;;;;;;;;;;4886788;28;20059;-70
2023/03/02 13:43:24;;;;;;;13.98;5.47;;;;;;;;;;4970951;28;20070;-70
2023/03/02 13:45:52;;;;;;;12.52;5.00;;;;;;;;;;4986154;28;20132;-70
2023/03/02 13:48:19;;;;;;;12.82;5.07;;;;;;;;;;4974234;28;20065;-70
2023/03/02 13:50:55;;;;;;;10.88;5.18;;;;;;;;;;4960966;28;20096;-70
2023/03/02 13:53:28;;;;;;;14.75;5.68;;;;;;;;;;4952535;28;20077;-71
2023/03/02 13:56:00;;;;;;;12.57;4.93;;;;;;;;;;4947317;28;20058;-70
2023/03/02 13:58:39;;;;;;;14.18;5.65;;;;;;;;;;4979991;28;20144;-69
2023/03/02 14:01:13;;;;;;;14.98;5.35;;;;;;;;;;4999445;28;20050;-69
2023/03/02 14:03:45;;;;;;;15.20;5.75;;;;;;;;;;4969662;28;20090;-68
2023/03/02 14:06:11;;;;;;;14.52;5.55;;;;;;;;;;4963398;28;20531;-69
2023/03/02 14:08:40;;;;;;;14.15;5.18;;;;;;;;;;4952526;28;20134;-69
2023/03/02 14:11:12;;;;;;;13.18;5.07;;;;;;;;;;4967231;28;20449;-69
2023/03/02 14:14:00;;;;;;;11.90;5.05;;;;;;;;;;4966943;28;20061;-72
2023/03/02 14:16:27;;;;;;;11.88;5.03;;;;;;;;;;4983425;28;20073;-70
2023/03/02 14:18:59;;;;;;;15.65;4.97;;;;;;;;;;4975390;28;20057;-69
2023/03/02 14:21:26;;;;;;;13.43;5.15;;;;;;;;;;4966804;28;20061;-70
2023/03/02 14:23:58;;;;;;;11.13;4.97;;;;;;;;;;4998340;28;20103;-71
2023/03/02 14:26:34;;;;;;;12.90;5.20;;;;;;;;;;4963482;28;20050;-69
2023/03/02 14:29:01;;;;;;;11.73;4.97;;;;;;;;;;4966343;28;20054;-69
2023/03/02 14:31:35;;;;;;;14.10;4.82;;;;;;;;;;4960122;28;20103;-70
2023/03/02 14:34:02;;;;;;;14.75;4.85;;;;;;;;;;4969316;28;20070;-70
2023/03/02 14:36:30;;;;;;;11.93;4.70;;;;;;;;;;4977291;28;20061;-70
2023/03/02 14:39:04;;;;;;;13.45;4.47;;;;;;;;;;4867198;28;20054;-70
2023/03/02 14:41:42;;;;;;;13.63;4.55;;;;;;;;;;4937521;28;20163;-70
2023/03/02 14:44:10;;;;;;;10.27;4.43;;;;;;;;;;4961217;28;20051;-70
2023/03/02 14:46:37;;;;;;;11.85;4.35;;;;;;;;;;4972460;28;20145;-70
2023/03/02 14:49:05;;;;;;;12.20;4.57;;;;;;;;;;4919029;28;20153;-69
2023/03/02 14:51:34;;;;;;;12.75;4.85;;;;;;;;;;4912972;28;20329;-71
2023/03/02 14:54:03;;;;;;;10.65;4.55;;;;;;;;;;4929482;28;20050;-71
2023/03/02 14:56:29;;;;;;;12.20;4.22;;;;;;;;;;4945177;28;20059;-70
2023/03/02 14:58:59;;;;;;;11.75;4.47;;;;;;;;;;4904063;28;20129;-70
2023/03/02 15:01:26;;;;;;;14.65;5.20;;;;;;;;;;4920439;28;20097;-70
2023/03/02 15:03:58;;;;;;;14.82;5.90;;;;;;;;;;4931935;28;20083;-70
2023/03/02 15:06:28;;;;;;;12.63;4.90;;;;;;;;;;4947066;28;20113;-70
2023/03/02 15:08:58;;;;;;;14.70;5.03;;;;;;;;;;4974217;28;20112;-70
2023/03/02 15:11:25;;;;;;;11.63;4.75;;;;;;;;;;4965422;28;20133;-70
2023/03/02 15:13:54;;;;;;;13.45;5.38;;;;;;;;;;4981824;28;20054;-70
2023/03/02 15:16:24;;;;;;;10.90;4.78;;;;;;;;;;4972234;28;20050;-70
2023/03/02 15:18:50;;;;;;;11.00;4.50;;;;;;;;;;4960724;28;20050;-70
2023/03/02 15:21:21;;;;;;;11.80;4.97;;;;;;;;;;4919343;28;20156;-70
2023/03/02 15:23:50;;;;;;;13.50;4.88;;;;;;;;;;4931672;28;20156;-71
2023/03/02 15:29:07;;;;;;;12.25;4.68;;;;;;;;;;4882300;28;19926;-71
2023/03/02 15:31:40;;;;;;;12.43;4.68;;;;;;;;;;4890514;29;20126;-72
2023/03/02 15:34:06;;;;;;;11.98;4.90;;;;;;;;;;4907823;28;20054;-70
2023/03/02 15:36:33;;;;;;;11.85;5.18;;;;;;;;;;4892214;29;20052;-71
2023/03/02 15:39:00;;;;;;;11.02;4.90;;;;;;;;;;4865326;29;20066;-69
2023/03/02 15:41:28;;;;;;;12.57;4.85;;;;;;;;;;4852338;29;20048;-70
2023/03/02 15:44:00;;;;;;;11.90;4.83;;;;;;;;;;4861876;28;20300;-70
2023/03/02 15:46:29;;;;;;;12.45;5.10;;;;;;;;;;4881433;28;20070;-71
2023/03/02 15:49:21;;;;;;;;;;;;;;;;;;;;;
2023/03/02 15:57:23;;;;;;;12.88;5.13;;;;;;;;;;4967321;28;20467;-70
2023/03/02 16:00:00;;;;;;;13.32;5.28;;;;;;;;;;4843428;28;20163;-69
2023/03/02 16:02:32;;;;;;;11.43;4.72;;;;;;;;;;4922183;28;20071;-70
2023/03/02 16:05:01;;;;;;;10.43;4.47;;;;;;;;;;4952976;28;20074;-69